Frederic, MI

4:10 AM EDT on May 27, 2015 (GMT -0400)
RAWS | | Change Station
CLOSE
Current Station
Personal Weather Station
Location: Grayling, MI
Elevation: 1120 ft
Nearby Weather Stations

Elev 1120 ft 44.72 °N, 84.71 °W | Updated 58 minutes ago

Partly Cloudy
Partly Cloudy
62 °F
Feels Like 62 °F
N
6
Wind Variable Wind from SSW
Gusts 13.0 mph

Today
High -- | Low -- °F
--% Chance of Precip.
Yesterday
High -- | Low -- °F
Precip. -- in
5:59 AM 9:13 PM
Waxing Gibbous, 65% visible
Pressure 29.78 in
Visibility 10.0 miles
Clouds Mostly Cloudy 3300 ft
Dew Point 59 °F
Humidity 90%
Rainfall in
Snow Depth Not available.
UV 0 out of 12
Pollen 9.20 out of 12
Air Quality Not available.
Flu Activity Sporadic
METAR KGOV 270801Z AUTO 19008KT 10SM BKN033 17/14 A2978 RMK AO2

More Conditions Fewer Conditions

Pressure 29.78 in
Visibility 10.0 miles
Clouds Mostly Cloudy 3300 ft
Dew Point 59 °F
Humidity 90%
Rainfall in
Snow Depth Not available.
UV 0 out of 12
Pollen 9.20 out of 12
Air Quality Not available.
Flu Activity Sporadic
METAR KGOV 270801Z AUTO 19008KT 10SM BKN033 17/14 A2978 RMK AO2

More Conditions Fewer Conditions

Nowcast | as of 4:00 am EDT on May 27, 2015

At 5 am...partly cloudy. Areas of fog. Slight chance of showers. Temperature 63. Southwest winds 8 mph. At 7 am...partly cloudy. Areas of fog. Slight chance of showers. Temperature 64. Southwest winds 8 mph. At 9 am...partly cloudy. Areas of fog. Slight chance of showers. Temperature 66. Southwest winds 10 mph. At 11 am...partly cloudy. Chance of showers. Temperature 67. Southwest winds 13 mph.

×

10-Day Weather Forecast

Almanac

Astronomy

May. 27, 2015 Rise Set
Actual Time
Civil Twilight
Nautical Twilight
Astronomical Twilight
Moon
Length of Visible Light
Length of Day
Tomorrow will be .
, % of the Moon is Illuminated

Today's Extremes

State Highs State Lows

Community

WunderPhotos

Upload Photos

1,824,634 photos uploaded!

WunderBlogs® & News

Nearby

Air Quality

  Air Quality AQ Index Pollutant
Not available.

Snow Depth

Station Depth Elevation

Earthquake Activity

City Distance Mag. Time & Date
Minimum magnitude displayed is 2.5.

Coastal Water Temperatures

Place Temperature

Stations

Nearby Weather Stations

Station Location Temp. Windchill Dew Point Humidity Wind Precip. Elev Updated Type